Terminal Aerodrome Forecast
Issued by NWS Sterling, VA

Home | Current Version | Previous Version | Text Only | Print | Product List | Glossary On
Versions: 1 2 3 4 5 6 7 8 9 10 11 12 13 14 15 16 17 18 19 20 21 22 23 24 25 26 27
000
FTUS41 KLWX 290231 AAA
TAFCHO
TAF AMD
KCHO 290231Z 2903/2924 07004KT 5SM -DZ BR OVC003
     FM290600 VRB03KT 2SM -DZ BR OVC003
     FM291200 VRB03KT 3SM -DZ BR OVC005
     FM291600 VRB03KT 6SM BR OVC008
     FM291800 09005KT P6SM BKN015
     FM292100 09005KT P6SM BKN050=

USA.gov is the U.S. government's official web portal to all federal, state and local government web resources and services.